93rd Latvian ChampionshipLong Course (50m)
Riga (LAT)26 - 28 May 2017
Men, 200m Breaststroke, Final,  Open
Men, 200m Breaststroke, Prelim,  Open
Men, 200m Breaststroke, Final,  Open27 May 2017 - 17:13TimePts.
1.BOBROVS, Daniils1997LATBJSS Ridzene-ZIEP2:13.37863
2.SHILOV, Denis1997RUSNizhny2:13.38863
3.ALLIKVEE, Martin1995ESTSK Garant2:13.68857
4.ADAMENIA, Anton1996BLRBelarus2:16.08813
5.HEIN, Silver1997ESTUjumisklubi Briis2:20.88732
6.SILINS, Janis Vitauts2000LATValmieras BSS2:22.41709
7.FELDBERGS, Valts1997LATBJSS Ridzene-ZIEP2:31.04594
8.PRIEDNIEKS, Marko2001LATBJSS Ridzene-ZIEP2:31.65587
Men, 200m Breaststroke, Prelim,  Open27 May 2017 - 10:46TimePts.
1.BOBROVS, Daniils1997LATBJSS Ridzene-ZIEP2:19.01762
2.HEIN, Silver1997ESTUjumisklubi Briis2:19.58753
3.SHILOV, Denis1997RUSNizhny2:19.74750
4.ADAMENIA, Anton1996BLRBelarus2:20.40740
5.ALLIKVEE, Martin1995ESTSK Garant2:20.70735
6.SILINS, Janis Vitauts2000LATValmieras BSS2:23.78689
7.NIINE, Joonas2000ESTUK Aktiiv2:24.66676
8.KAVALIOU, Yauhen1996BLRBelarus2:25.50665
9.SOVTSA, Mark2001ESTTop Uk2:29.07618
10.MATVEJEV, Tiit1999ESTUjumise SK2:31.86585
11.FELDBERGS, Valts1997LATBJSS Ridzene-ZIEP2:33.17570
12.BALCUNS, Martins2000LATBJSS Ridzene-ZIEP2:34.61554
13.PRIEDNIEKS, Marko2001LATBJSS Ridzene-ZIEP2:34.98550
14.LICITIS, Arturs1999LATBJSS Ridzene-DSN2:35.14548
15.RUDAVS, Didzis2001LATJelgavas SPS2:36.35536
16.KAHANOVICS, Rihards2002LATBJSS Ridzene-ZIEP2:36.48534
17.HARLAPS, Maksims1998LATVentspils SS Spars2:38.35516
18.GOLCVARTS, Germans2003LATJelgavas SPS2:41.87483
19.AKMENS, Emils Ivars2001LATBJSS Ridzene-DSN2:44.03464
20.GROMOVS, Kristers2002LATJelgavas SPS2:45.21454
21.BELSKIS, Zenons2001LATBJSS Ridzene-DSN2:45.92448
22.AKIMOVS, Miko1999LATJurmalas SS2:46.02447
23.KOLESNIKOVS, Glebs2000LATPK Goldswimmer2:46.68442
24.SEMENUKS, Daniels2001LATValmieras BSS2:47.52435
25.GALILEEVS, Nikita1999LATKipsalas peldbaseins2:48.15430
26.GRUSKEVICS, Georgs2001LATLiepajas KSS-LOC2:48.95424
27.FEDOSIKS, Vladlens2001LATJurmalas SS2:52.72397
28.VEJONIS, Rolands2002LATBJSS Ridzene-ZIEP2:53.41392